PACV METAR and TAF weather

Enter ICAO airport designator
Station Type Date Time Source
PACV METAR 2019/06/26 19:53 UTC NOAA

PACV 261953Z VRB03KT 10SM FEW018 BKN200 18/12 A3008 RMK AO2 SLP186 T01830117


Station Type Date Time Source
PACV Decoded METAR 2019/06/26 19:53 UTC NOAA

MERLE K. SMITH AIRPORT, AK, United States (PACV) 60-30N 145-29W 13M
Jun 26, 2019 - 03:53 PM EDT / 2019.06.26 1953 UTC
Wind: Variable at 3 MPH (3 KT):0
Visibility: 10 mile(s):0
Sky conditions: mostly cloudy
Temperature: 64.9 F (18.3 C)
Dew Point: 53.1 F (11.7 C)
Relative Humidity: 65%
Pressure (altimeter): 30.08 in. Hg (1018 hPa)
ob: PACV 261953Z VRB03KT 10SM FEW018 BKN200 18/12 A3008 RMK AO2 SLP186 T01830117
cycle: 20

Station Type Date Time Source
PACV TAF 2019/06/26 18:42 UTC NOAA

TAF PACV 261740Z 2618/2718 23005KT P6SM FEW015 SCT040 BKN200
TEMPO 2618/2619 BKN015
FM270600 VRB06KT P6SM SKC

Example: see airport list